Huvudsida
METAR-TAF:

METAR-TAF

Flygplatser :

Almirante Padilla Airport

Riohacha, Colombia

latitud: 11-32N, longitud: 072-56W, höjd: 4 m

Aktuellt väderrapport

Denna rapport gjordes för 1 timme och 0 minuter sedan, klockan 20:00 UTC
Vind 21 kt från ost/sydost i byarna ända upp till 31 kt
Temperatur 33°C
Fuktighet 36%
Tryck 1008 hPa
Sikt 10 km eller mer
Få moln på en höjd av 2000 ft

METAR: SKRH 212000Z 11021G31KT 9999 FEW020 33/16 A2978

Tid: 16:00 (21:00 UTC)


TAF: saknas

Aktuella väderrapporter och prognoser från 4000 flygplatser (METAR- och TAF-rapporter).

De tillgängliga stationerna syns som gula och röda prickar på kartan.

För musen över prickarna för att se namnen på stationerna.

Klicka sedan för att få väderrapporter och prognoser.

För att ändra kartan: Klicka på de gröna knapparna med ett svart kors på för att zooma in; den gröna knappen med ett streck på för att zooma ut; eller på de gröna pilarna för angränsande kartor.


METAR-TAF: